sensor_id;sensor_type;location;lat;lon;timestamp;pressure;altitude;pressure_sealevel;temperature;humidity
41140;BME280;26881;48.784;9.192;2022-08-19T00:01:33;98138.28;;;22.18;60.61
41140;BME280;26881;48.784;9.192;2022-08-19T00:06:59;98121.16;;;22.21;60.77
41140;BME280;26881;48.784;9.192;2022-08-19T00:12:21;98129.78;;;22.23;60.48
41140;BME280;26881;48.784;9.192;2022-08-19T00:17:44;98141.09;;;22.17;60.80
41140;BME280;26881;48.784;9.192;2022-08-19T00:23:06;98129.78;;;22.23;60.81
41140;BME280;26881;48.784;9.192;2022-08-19T00:28:28;98138.94;;;22.20;61.15
41140;BME280;26881;48.784;9.192;2022-08-19T00:33:49;98128.31;;;22.12;61.12
41140;BME280;26881;48.784;9.192;2022-08-19T00:39:13;98108.84;;;22.12;61.24
41140;BME280;26881;48.784;9.192;2022-08-19T00:44:35;98104.03;;;22.07;61.45
41140;BME280;26881;48.784;9.192;2022-08-19T00:49:57;98103.22;;;22.06;61.48
41140;BME280;26881;48.784;9.192;2022-08-19T00:55:23;98118.03;;;22.09;61.27
41140;BME280;26881;48.784;9.192;2022-08-19T01:00:46;98120.75;;;22.01;61.67
41140;BME280;26881;48.784;9.192;2022-08-19T01:06:08;98127.88;;;22.00;61.82
41140;BME280;26881;48.784;9.192;2022-08-19T01:11:33;98128.06;;;21.99;61.81
41140;BME280;26881;48.784;9.192;2022-08-19T01:16:56;98118.75;;;21.95;61.98
41140;BME280;26881;48.784;9.192;2022-08-19T01:27:52;98119.88;;;22.00;61.93
41140;BME280;26881;48.784;9.192;2022-08-19T01:33:14;98109.75;;;21.96;62.15
41140;BME280;26881;48.784;9.192;2022-08-19T01:38:39;98106.94;;;21.97;61.87
41140;BME280;26881;48.784;9.192;2022-08-19T01:44:06;98109.59;;;21.97;61.95
41140;BME280;26881;48.784;9.192;2022-08-19T01:49:40;98114.94;;;21.97;62.01
41140;BME280;26881;48.784;9.192;2022-08-19T01:55:04;98096.44;;;21.96;62.03
41140;BME280;26881;48.784;9.192;2022-08-19T02:00:29;98110.78;;;21.95;62.35
41140;BME280;26881;48.784;9.192;2022-08-19T02:05:59;98118.28;;;21.91;62.60
41140;BME280;26881;48.784;9.192;2022-08-19T02:11:30;98116.09;;;21.95;62.52
41140;BME280;26881;48.784;9.192;2022-08-19T02:16:55;98104.78;;;21.93;62.58
41140;BME280;26881;48.784;9.192;2022-08-19T02:22:17;98103.31;;;21.90;62.55
41140;BME280;26881;48.784;9.192;2022-08-19T02:27:40;98118.31;;;21.83;63.35
41140;BME280;26881;48.784;9.192;2022-08-19T02:33:02;98122.00;;;21.82;63.12
41140;BME280;26881;48.784;9.192;2022-08-19T02:38:24;98114.03;;;21.74;63.50
41140;BME280;26881;48.784;9.192;2022-08-19T02:43:49;98113.72;;;21.68;63.79
41140;BME280;26881;48.784;9.192;2022-08-19T02:49:31;98107.59;;;21.68;63.94
41140;BME280;26881;48.784;9.192;2022-08-19T02:54:55;98103.75;;;21.62;64.44
41140;BME280;26881;48.784;9.192;2022-08-19T03:00:18;98108.75;;;21.65;64.29
41140;BME280;26881;48.784;9.192;2022-08-19T03:05:41;98095.63;;;21.64;64.26
41140;BME280;26881;48.784;9.192;2022-08-19T03:11:18;98100.44;;;21.60;64.95
41140;BME280;26881;48.784;9.192;2022-08-19T03:16:46;98113.28;;;21.57;65.61
41140;BME280;26881;48.784;9.192;2022-08-19T03:22:09;98118.41;;;21.58;65.20
41140;BME280;26881;48.784;9.192;2022-08-19T03:27:31;98123.56;;;21.60;65.00
41140;BME280;26881;48.784;9.192;2022-08-19T03:32:55;98116.09;;;21.55;65.13
41140;BME280;26881;48.784;9.192;2022-08-19T03:38:17;98123.78;;;21.50;65.17
41140;BME280;26881;48.784;9.192;2022-08-19T03:43:40;98127.78;;;21.46;65.63
41140;BME280;26881;48.784;9.192;2022-08-19T03:49:03;98117.13;;;21.46;65.77
41140;BME280;26881;48.784;9.192;2022-08-19T03:54:29;98113.13;;;21.42;65.93
41140;BME280;26881;48.784;9.192;2022-08-19T03:59:50;98122.44;;;21.38;65.84
41140;BME280;26881;48.784;9.192;2022-08-19T04:05:12;98129.09;;;21.42;66.24
41140;BME280;26881;48.784;9.192;2022-08-19T04:10:36;98131.94;;;21.32;66.96
41140;BME280;26881;48.784;9.192;2022-08-19T04:15:58;98128.97;;;21.19;67.93
41140;BME280;26881;48.784;9.192;2022-08-19T04:21:23;98129.81;;;21.11;67.44
41140;BME280;26881;48.784;9.192;2022-08-19T04:26:45;98127.00;;;20.96;68.67
41140;BME280;26881;48.784;9.192;2022-08-19T04:32:07;98130.81;;;21.02;68.47
41140;BME280;26881;48.784;9.192;2022-08-19T04:37:31;98117.69;;;20.92;69.16
41140;BME280;26881;48.784;9.192;2022-08-19T04:42:56;98128.19;;;20.94;68.96
41140;BME280;26881;48.784;9.192;2022-08-19T04:48:18;98129.50;;;20.98;68.83
41140;BME280;26881;48.784;9.192;2022-08-19T04:53:48;98130.66;;;20.95;68.63
41140;BME280;26881;48.784;9.192;2022-08-19T04:59:10;98134.28;;;21.02;67.50
41140;BME280;26881;48.784;9.192;2022-08-19T05:04:32;98139.78;;;21.09;67.37
41140;BME280;26881;48.784;9.192;2022-08-19T05:09:54;98146.94;;;21.09;67.39
41140;BME280;26881;48.784;9.192;2022-08-19T05:15:19;98154.75;;;21.10;66.91
41140;BME280;26881;48.784;9.192;2022-08-19T05:20:41;98160.72;;;21.12;67.45
41140;BME280;26881;48.784;9.192;2022-08-19T05:26:21;98188.66;;;21.08;67.68
41140;BME280;26881;48.784;9.192;2022-08-19T05:31:44;98212.91;;;21.13;67.82
41140;BME280;26881;48.784;9.192;2022-08-19T05:37:06;98225.72;;;21.10;67.24
41140;BME280;26881;48.784;9.192;2022-08-19T05:42:29;98231.34;;;21.07;67.89
41140;BME280;26881;48.784;9.192;2022-08-19T05:47:52;98232.84;;;21.09;67.31
41140;BME280;26881;48.784;9.192;2022-08-19T05:53:13;98226.53;;;21.10;66.88
41140;BME280;26881;48.784;9.192;2022-08-19T05:58:38;98228.03;;;21.13;67.33
41140;BME280;26881;48.784;9.192;2022-08-19T06:04:01;98227.19;;;21.20;66.92
41140;BME280;26881;48.784;9.192;2022-08-19T06:09:24;98226.53;;;21.18;67.32
41140;BME280;26881;48.784;9.192;2022-08-19T06:14:45;98228.88;;;21.21;67.21
41140;BME280;26881;48.784;9.192;2022-08-19T06:20:21;98227.19;;;21.20;67.34
41140;BME280;26881;48.784;9.192;2022-08-19T06:26:03;98227.19;;;21.20;67.08
41140;BME280;26881;48.784;9.192;2022-08-19T06:31:27;98222.22;;;21.17;66.88
41140;BME280;26881;48.784;9.192;2022-08-19T06:36:51;98228.22;;;21.19;68.15
41140;BME280;26881;48.784;9.192;2022-08-19T06:42:13;98230.19;;;21.09;69.95
41140;BME280;26881;48.784;9.192;2022-08-19T06:47:38;98236.00;;;21.04;71.54
41140;BME280;26881;48.784;9.192;2022-08-19T06:53:00;98227.22;;;20.96;73.51
41140;BME280;26881;48.784;9.192;2022-08-19T06:58:25;98234.00;;;20.90;71.80
41140;BME280;26881;48.784;9.192;2022-08-19T07:03:53;98234.00;;;20.90;72.66
41140;BME280;26881;48.784;9.192;2022-08-19T07:09:17;98236.31;;;20.85;72.25
41140;BME280;26881;48.784;9.192;2022-08-19T07:14:41;98246.78;;;20.95;72.28
41140;BME280;26881;48.784;9.192;2022-08-19T07:20:04;98248.97;;;20.99;72.36
41140;BME280;26881;48.784;9.192;2022-08-19T07:25:30;98252.97;;;21.03;70.96
41140;BME280;26881;48.784;9.192;2022-08-19T07:30:53;98245.81;;;20.96;70.30
41140;BME280;26881;48.784;9.192;2022-08-19T07:36:18;98248.47;;;20.96;70.27
41140;BME280;26881;48.784;9.192;2022-08-19T07:41:40;98259.41;;;20.93;69.32
41140;BME280;26881;48.784;9.192;2022-08-19T07:47:03;98248.28;;;20.89;69.77
41140;BME280;26881;48.784;9.192;2022-08-19T07:52:25;98253.63;;;20.89;69.23
41140;BME280;26881;48.784;9.192;2022-08-19T07:57:47;98260.28;;;20.93;69.39
41140;BME280;26881;48.784;9.192;2022-08-19T08:03:14;98259.41;;;20.93;69.75
41140;BME280;26881;48.784;9.192;2022-08-19T08:08:36;98257.44;;;20.95;70.16
41140;BME280;26881;48.784;9.192;2022-08-19T08:14:07;98255.75;;;20.86;73.43
41140;BME280;26881;48.784;9.192;2022-08-19T08:19:50;98265.00;;;20.65;76.02
41140;BME280;26881;48.784;9.192;2022-08-19T08:25:17;98267.50;;;20.58;77.84
41140;BME280;26881;48.784;9.192;2022-08-19T08:30:41;98277.03;;;20.43;78.49
41140;BME280;26881;48.784;9.192;2022-08-19T08:36:06;98269.25;;;20.50;73.88
41140;BME280;26881;48.784;9.192;2022-08-19T08:41:39;98273.31;;;20.62;75.82
41140;BME280;26881;48.784;9.192;2022-08-19T08:47:06;98270.31;;;20.65;73.48
41140;BME280;26881;48.784;9.192;2022-08-19T08:52:38;98273.66;;;20.59;76.93
41140;BME280;26881;48.784;9.192;2022-08-19T08:58:12;98262.00;;;20.60;75.58
41140;BME280;26881;48.784;9.192;2022-08-19T09:03:41;98271.38;;;20.72;76.89
41140;BME280;26881;48.784;9.192;2022-08-19T09:09:14;98272.72;;;20.84;74.48
41140;BME280;26881;48.784;9.192;2022-08-19T09:14:49;98270.72;;;20.87;77.93
41140;BME280;26881;48.784;9.192;2022-08-19T09:20:20;98275.34;;;20.76;75.60
41140;BME280;26881;48.784;9.192;2022-08-19T09:25:42;98280.50;;;20.86;76.08
41140;BME280;26881;48.784;9.192;2022-08-19T09:31:03;98279.53;;;20.95;73.57
41140;BME280;26881;48.784;9.192;2022-08-19T09:36:27;98275.22;;;20.94;75.46
41140;BME280;26881;48.784;9.192;2022-08-19T09:41:55;98276.88;;;21.03;73.62
41140;BME280;26881;48.784;9.192;2022-08-19T09:47:18;98279.56;;;21.03;75.22
41140;BME280;26881;48.784;9.192;2022-08-19T09:52:40;98286.53;;;21.13;73.52
41140;BME280;26881;48.784;9.192;2022-08-19T09:58:16;98282.38;;;21.18;73.89
41140;BME280;26881;48.784;9.192;2022-08-19T10:03:37;98289.22;;;21.29;73.55
41140;BME280;26881;48.784;9.192;2022-08-19T10:09:00;98282.06;;;21.30;72.96
41140;BME280;26881;48.784;9.192;2022-08-19T10:14:22;98286.72;;;21.36;71.83
41140;BME280;26881;48.784;9.192;2022-08-19T10:19:45;98281.06;;;21.39;71.61
41140;BME280;26881;48.784;9.192;2022-08-19T10:25:16;98269.13;;;21.43;72.73
41140;BME280;26881;48.784;9.192;2022-08-19T10:30:39;98276.91;;;21.44;73.17
41140;BME280;26881;48.784;9.192;2022-08-19T10:36:04;98269.44;;;21.48;70.99
41140;BME280;26881;48.784;9.192;2022-08-19T10:41:30;98264.63;;;21.52;71.43
41140;BME280;26881;48.784;9.192;2022-08-19T10:46:52;98260.47;;;21.57;71.36
41140;BME280;26881;48.784;9.192;2022-08-19T10:52:17;98260.63;;;21.64;70.53
41140;BME280;26881;48.784;9.192;2022-08-19T10:57:59;98262.28;;;21.73;69.66
41140;BME280;26881;48.784;9.192;2022-08-19T11:03:26;98258.59;;;21.82;69.27
41140;BME280;26881;48.784;9.192;2022-08-19T11:08:51;98260.09;;;21.85;67.92
41140;BME280;26881;48.784;9.192;2022-08-19T11:14:15;98258.41;;;21.84;67.75
41140;BME280;26881;48.784;9.192;2022-08-19T11:19:38;98259.72;;;21.88;67.10
41140;BME280;26881;48.784;9.192;2022-08-19T11:25:00;98249.41;;;21.93;67.14
41140;BME280;26881;48.784;9.192;2022-08-19T11:30:22;98249.75;;;21.98;66.95
41140;BME280;26881;48.784;9.192;2022-08-19T11:35:44;98254.34;;;22.04;65.76
41140;BME280;26881;48.784;9.192;2022-08-19T11:41:07;98247.19;;;22.13;64.92
41140;BME280;26881;48.784;9.192;2022-08-19T11:46:29;98250.16;;;22.18;63.79
41140;BME280;26881;48.784;9.192;2022-08-19T11:51:51;98259.66;;;22.21;64.22
41140;BME280;26881;48.784;9.192;2022-08-19T11:57:14;98252.16;;;22.24;63.53
41140;BME280;26881;48.784;9.192;2022-08-19T12:02:38;98245.31;;;22.30;63.93
41140;BME280;26881;48.784;9.192;2022-08-19T12:08:00;98250.31;;;22.33;63.49
41140;BME280;26881;48.784;9.192;2022-08-19T12:13:22;98255.28;;;22.36;63.23
41140;BME280;26881;48.784;9.192;2022-08-19T12:18:45;98248.94;;;22.37;66.63
41140;BME280;26881;48.784;9.192;2022-08-19T12:24:12;98241.84;;;22.21;68.50
41140;BME280;26881;48.784;9.192;2022-08-19T12:29:34;98236.00;;;22.18;69.45
41140;BME280;26881;48.784;9.192;2022-08-19T12:34:56;98237.72;;;22.10;69.64
41140;BME280;26881;48.784;9.192;2022-08-19T12:40:17;98242.84;;;22.12;69.76
41140;BME280;26881;48.784;9.192;2022-08-19T12:45:41;98243.03;;;22.10;69.76
41140;BME280;26881;48.784;9.192;2022-08-19T12:51:09;98241.69;;;22.15;69.36
41140;BME280;26881;48.784;9.192;2022-08-19T12:56:31;98234.16;;;22.18;69.55
41140;BME280;26881;48.784;9.192;2022-08-19T13:01:54;98242.16;;;22.26;68.90
41140;BME280;26881;48.784;9.192;2022-08-19T13:07:16;98243.97;;;22.34;68.20
41140;BME280;26881;48.784;9.192;2022-08-19T13:12:38;98253.28;;;22.38;68.23
41140;BME280;26881;48.784;9.192;2022-08-19T13:18:01;98267.78;;;22.27;69.87
41140;BME280;26881;48.784;9.192;2022-08-19T13:23:23;98255.16;;;22.21;71.11
41140;BME280;26881;48.784;9.192;2022-08-19T13:28:45;98252.88;;;22.10;74.40
41140;BME280;26881;48.784;9.192;2022-08-19T13:39:51;98252.56;;;21.97;77.60
41140;BME280;26881;48.784;9.192;2022-08-19T13:45:15;98254.06;;;21.91;78.80
41140;BME280;26881;48.784;9.192;2022-08-19T13:50:42;98262.09;;;21.83;79.75
41140;BME280;26881;48.784;9.192;2022-08-19T13:56:06;98274.41;;;21.76;80.92
41140;BME280;26881;48.784;9.192;2022-08-19T14:01:27;98266.09;;;21.62;82.77
41140;BME280;26881;48.784;9.192;2022-08-19T14:06:49;98263.47;;;21.54;83.21
41140;BME280;26881;48.784;9.192;2022-08-19T14:12:11;98267.28;;;21.43;85.41
41140;BME280;26881;48.784;9.192;2022-08-19T14:17:33;98274.41;;;21.35;86.22
41140;BME280;26881;48.784;9.192;2022-08-19T14:22:56;98266.81;;;21.40;84.40
41140;BME280;26881;48.784;9.192;2022-08-19T14:28:18;98268.59;;;21.39;85.11
41140;BME280;26881;48.784;9.192;2022-08-19T14:33:39;98263.25;;;21.39;82.50
41140;BME280;26881;48.784;9.192;2022-08-19T14:39:03;98255.16;;;21.41;84.05
41140;BME280;26881;48.784;9.192;2022-08-19T14:44:28;98255.81;;;21.59;81.37
41140;BME280;26881;48.784;9.192;2022-08-19T14:49:50;98263.75;;;21.67;80.80
41140;BME280;26881;48.784;9.192;2022-08-19T14:55:14;98257.47;;;21.68;78.87
41140;BME280;26881;48.784;9.192;2022-08-19T15:00:35;98244.50;;;21.65;79.70
41140;BME280;26881;48.784;9.192;2022-08-19T15:05:59;98247.94;;;21.74;77.23
41140;BME280;26881;48.784;9.192;2022-08-19T15:11:23;98257.44;;;21.77;77.95
41140;BME280;26881;48.784;9.192;2022-08-19T15:16:47;98251.94;;;21.86;77.36
41140;BME280;26881;48.784;9.192;2022-08-19T15:22:09;98246.22;;;21.98;75.75
41140;BME280;26881;48.784;9.192;2022-08-19T15:27:31;98247.38;;;22.03;75.52
41140;BME280;26881;48.784;9.192;2022-08-19T15:32:54;98249.03;;;22.13;75.65
41140;BME280;26881;48.784;9.192;2022-08-19T15:38:18;98241.84;;;22.13;75.51
41140;BME280;26881;48.784;9.192;2022-08-19T15:43:43;98242.00;;;22.20;75.42
41140;BME280;26881;48.784;9.192;2022-08-19T15:49:05;98244.34;;;22.23;75.54
41140;BME280;26881;48.784;9.192;2022-08-19T15:54:27;98244.31;;;22.31;75.23
41140;BME280;26881;48.784;9.192;2022-08-19T15:59:49;98255.44;;;22.35;74.69
41140;BME280;26881;48.784;9.192;2022-08-19T16:05:32;98254.94;;;22.39;74.38
41140;BME280;26881;48.784;9.192;2022-08-19T16:11:12;98255.88;;;22.46;74.84
41140;BME280;26881;48.784;9.192;2022-08-19T16:16:40;98257.06;;;22.44;76.15
41140;BME280;26881;48.784;9.192;2022-08-19T16:22:02;98262.25;;;22.37;77.12
41140;BME280;26881;48.784;9.192;2022-08-19T16:27:25;98265.44;;;22.33;77.80
41140;BME280;26881;48.784;9.192;2022-08-19T16:32:47;98275.44;;;22.30;77.42
41140;BME280;26881;48.784;9.192;2022-08-19T16:38:09;98278.47;;;22.19;78.69
41140;BME280;26881;48.784;9.192;2022-08-19T16:43:32;98271.31;;;22.12;78.86
41140;BME280;26881;48.784;9.192;2022-08-19T16:54:16;98282.84;;;21.96;79.32
41140;BME280;26881;48.784;9.192;2022-08-19T16:59:39;98290.69;;;21.89;79.05
41140;BME280;26881;48.784;9.192;2022-08-19T17:05:09;98297.19;;;21.86;79.46
41140;BME280;26881;48.784;9.192;2022-08-19T17:10:31;98302.53;;;21.86;79.26
41140;BME280;26881;48.784;9.192;2022-08-19T17:15:53;98315.84;;;21.78;79.64
41140;BME280;26881;48.784;9.192;2022-08-19T17:21:15;98317.31;;;21.81;79.24
41140;BME280;26881;48.784;9.192;2022-08-19T17:26:37;98317.97;;;21.75;79.89
41140;BME280;26881;48.784;9.192;2022-08-19T17:31:59;98320.34;;;21.78;79.15
41140;BME280;26881;48.784;9.192;2022-08-19T17:37:21;98320.16;;;21.71;78.42
41140;BME280;26881;48.784;9.192;2022-08-19T17:42:46;98327.31;;;21.71;78.47
41140;BME280;26881;48.784;9.192;2022-08-19T17:48:09;98319.53;;;21.61;78.75
41140;BME280;26881;48.784;9.192;2022-08-19T17:53:31;98321.84;;;21.64;78.84
41140;BME280;26881;48.784;9.192;2022-08-19T17:58:53;98318.50;;;21.62;79.47
41140;BME280;26881;48.784;9.192;2022-08-19T18:04:22;98331.97;;;21.60;78.12
41140;BME280;26881;48.784;9.192;2022-08-19T18:09:46;98327.00;;;21.57;78.45
41140;BME280;26881;48.784;9.192;2022-08-19T18:15:13;98333.31;;;21.48;78.54
41140;BME280;26881;48.784;9.192;2022-08-19T18:20:36;98347.41;;;21.32;79.60
41140;BME280;26881;48.784;9.192;2022-08-19T18:25:58;98343.78;;;21.41;78.97
41140;BME280;26881;48.784;9.192;2022-08-19T18:31:19;98345.72;;;21.39;78.65
41140;BME280;26881;48.784;9.192;2022-08-19T18:36:43;98341.41;;;21.30;79.18
41140;BME280;26881;48.784;9.192;2022-08-19T18:42:16;98360.19;;;21.12;80.20
41140;BME280;26881;48.784;9.192;2022-08-19T18:47:56;98357.00;;;21.09;80.68
41140;BME280;26881;48.784;9.192;2022-08-19T18:53:49;98359.16;;;21.05;80.76
41140;BME280;26881;48.784;9.192;2022-08-19T18:59:11;98369.28;;;21.01;81.37
41140;BME280;26881;48.784;9.192;2022-08-19T19:04:36;98369.09;;;20.95;81.81
41140;BME280;26881;48.784;9.192;2022-08-19T19:09:58;98370.59;;;20.89;82.54
41140;BME280;26881;48.784;9.192;2022-08-19T19:15:20;98384.03;;;20.88;82.56
41140;BME280;26881;48.784;9.192;2022-08-19T19:20:42;98378.06;;;20.94;82.98
41140;BME280;26881;48.784;9.192;2022-08-19T19:26:05;98381.72;;;20.93;83.23
41140;BME280;26881;48.784;9.192;2022-08-19T19:31:27;98389.34;;;20.88;83.72
41140;BME280;26881;48.784;9.192;2022-08-19T19:36:50;98391.19;;;20.95;83.26
41140;BME280;26881;48.784;9.192;2022-08-19T19:42:15;98385.91;;;21.03;82.44
41140;BME280;26881;48.784;9.192;2022-08-19T19:47:41;98391.41;;;21.10;81.32
41140;BME280;26881;48.784;9.192;2022-08-19T19:53:05;98401.38;;;21.16;80.95
41140;BME280;26881;48.784;9.192;2022-08-19T19:58:28;98396.06;;;21.16;80.82
41140;BME280;26881;48.784;9.192;2022-08-19T20:03:50;98397.41;;;21.20;80.29
41140;BME280;26881;48.784;9.192;2022-08-19T20:09:13;98408.53;;;21.16;80.45
41140;BME280;26881;48.784;9.192;2022-08-19T20:14:40;98408.22;;;21.19;80.13
41140;BME280;26881;48.784;9.192;2022-08-19T20:20:02;98408.06;;;21.20;79.49
41140;BME280;26881;48.784;9.192;2022-08-19T20:25:24;98419.88;;;21.26;78.07
41140;BME280;26881;48.784;9.192;2022-08-19T20:30:46;98417.06;;;21.36;77.33
41140;BME280;26881;48.784;9.192;2022-08-19T20:36:08;98417.56;;;21.31;76.39
41140;BME280;26881;48.784;9.192;2022-08-19T20:41:30;98419.22;;;21.32;77.19
41140;BME280;26881;48.784;9.192;2022-08-19T20:46:53;98419.56;;;21.29;75.75
41140;BME280;26881;48.784;9.192;2022-08-19T20:52:20;98417.03;;;21.27;75.09
41140;BME280;26881;48.784;9.192;2022-08-19T20:57:41;98418.53;;;21.30;73.44
41140;BME280;26881;48.784;9.192;2022-08-19T21:03:04;98407.41;;;21.35;71.74
41140;BME280;26881;48.784;9.192;2022-08-19T21:08:27;98419.09;;;21.42;68.77
41140;BME280;26881;48.784;9.192;2022-08-19T21:13:49;98416.47;;;21.50;68.20
41140;BME280;26881;48.784;9.192;2022-08-19T21:19:10;98415.16;;;21.54;65.72
41140;BME280;26881;48.784;9.192;2022-08-19T21:24:33;98414.16;;;21.63;64.38
41140;BME280;26881;48.784;9.192;2022-08-19T21:29:55;98417.50;;;21.74;61.20
41140;BME280;26881;48.784;9.192;2022-08-19T21:35:17;98416.66;;;21.81;60.76
41140;BME280;26881;48.784;9.192;2022-08-19T21:40:40;98417.84;;;21.87;60.59
41140;BME280;26881;48.784;9.192;2022-08-19T21:46:02;98424.47;;;21.91;60.29
41140;BME280;26881;48.784;9.192;2022-08-19T21:51:24;98425.50;;;21.98;60.28
41140;BME280;26881;48.784;9.192;2022-08-19T21:56:46;98427.47;;;22.04;60.07
41140;BME280;26881;48.784;9.192;2022-08-19T22:02:08;98426.50;;;22.05;60.67
41140;BME280;26881;48.784;9.192;2022-08-19T22:07:41;98428.97;;;22.07;60.85
41140;BME280;26881;48.784;9.192;2022-08-19T22:13:03;98434.97;;;22.09;61.26
41140;BME280;26881;48.784;9.192;2022-08-19T22:18:25;98431.13;;;22.12;61.99
41140;BME280;26881;48.784;9.192;2022-08-19T22:23:48;98431.94;;;22.12;61.59
41140;BME280;26881;48.784;9.192;2022-08-19T22:29:10;98439.78;;;22.14;60.68
41140;BME280;26881;48.784;9.192;2022-08-19T22:34:36;98441.47;;;22.15;61.58
41140;BME280;26881;48.784;9.192;2022-08-19T22:39:59;98449.25;;;22.16;61.58
41140;BME280;26881;48.784;9.192;2022-08-19T22:45:27;98454.59;;;22.16;61.42
41140;BME280;26881;48.784;9.192;2022-08-19T22:50:49;98460.75;;;22.17;61.38
41140;BME280;26881;48.784;9.192;2022-08-19T22:56:30;98457.75;;;22.12;61.40
41140;BME280;26881;48.784;9.192;2022-08-19T23:01:52;98458.78;;;22.10;61.34
41140;BME280;26881;48.784;9.192;2022-08-19T23:07:19;98466.56;;;22.12;61.32
41140;BME280;26881;48.784;9.192;2022-08-19T23:12:46;98463.09;;;22.12;60.60
41140;BME280;26881;48.784;9.192;2022-08-19T23:18:09;98467.59;;;22.11;61.03
41140;BME280;26881;48.784;9.192;2022-08-19T23:23:31;98468.44;;;22.03;61.56
41140;BME280;26881;48.784;9.192;2022-08-19T23:28:53;98468.75;;;22.00;61.50
41140;BME280;26881;48.784;9.192;2022-08-19T23:34:33;98461.59;;;22.01;61.81
41140;BME280;26881;48.784;9.192;2022-08-19T23:39:55;98466.75;;;21.94;61.90
41140;BME280;26881;48.784;9.192;2022-08-19T23:45:19;98466.59;;;21.87;62.68
41140;BME280;26881;48.784;9.192;2022-08-19T23:50:45;98476.22;;;21.80;62.65
41140;BME280;26881;48.784;9.192;2022-08-19T23:56:09;98471.25;;;21.77;63.27
